createdAt,value
2019-05-28T00:00:09.641Z,75.77
2019-05-28T00:02:38.881Z,75.48
2019-05-28T00:05:08.327Z,73.64
2019-05-28T00:07:37.574Z,73.72
2019-05-28T00:10:08.535Z,73.45
2019-05-28T00:12:37.723Z,73.23
2019-05-28T00:15:08.233Z,73.47
2019-05-28T00:17:38.384Z,73.71
2019-05-28T00:20:08.403Z,73.74
2019-05-28T00:22:37.580Z,74.58
2019-05-28T00:25:07.155Z,74.87
2019-05-28T00:27:36.291Z,74.96
2019-05-28T00:30:19.032Z,75.19
2019-05-28T00:32:38.191Z,75.21
2019-05-28T00:35:07.806Z,75.16
2019-05-28T00:37:36.976Z,75.21
2019-05-28T00:40:06.491Z,75.04
2019-05-28T00:42:35.699Z,74.54
2019-05-28T00:45:07.031Z,74.14
2019-05-28T00:47:36.211Z,73.87
2019-05-28T00:50:09.774Z,73.90
2019-05-28T00:52:39.032Z,73.77
2019-05-28T00:55:09.972Z,73.87
2019-05-28T00:57:42.217Z,73.64
2019-05-28T01:00:11.830Z,73.42
2019-05-28T01:02:41.393Z,73.39
2019-05-28T01:05:11.030Z,73.27
2019-05-28T01:07:40.239Z,72.78
2019-05-28T01:10:10.324Z,71.60
2019-05-28T01:12:39.519Z,71.01
2019-05-28T01:15:09.251Z,70.67
2019-05-28T01:17:38.600Z,70.36
2019-05-28T01:20:08.546Z,69.72
2019-05-28T01:22:37.714Z,68.89
2019-05-28T01:25:07.734Z,68.66
2019-05-28T01:27:36.911Z,68.88
2019-05-28T01:30:07.548Z,68.72
2019-05-28T01:32:36.730Z,68.07
2019-05-28T01:35:09.191Z,67.37
2019-05-28T01:37:38.369Z,65.51
2019-05-28T01:40:07.792Z,65.63
2019-05-28T01:42:36.985Z,65.56
2019-05-28T01:45:07.505Z,65.56
2019-05-28T01:47:37.080Z,65.61
2019-05-28T01:50:08.043Z,65.72
2019-05-28T01:52:37.290Z,65.97
2019-05-28T01:55:09.987Z,65.15
2019-05-28T01:57:39.168Z,64.67
2019-05-28T02:00:09.294Z,64.48
2019-05-28T02:02:38.480Z,64.56
2019-05-28T02:05:08.862Z,64.60
2019-05-28T02:07:38.055Z,64.35
2019-05-28T02:10:07.772Z,64.23
2019-05-28T02:12:37.049Z,64.26
2019-05-28T02:15:08.370Z,65.09
2019-05-28T02:17:37.598Z,65.90
2019-05-28T02:20:09.283Z,67.33
2019-05-28T02:22:38.671Z,67.10
2019-05-28T02:25:09.314Z,66.63
2019-05-28T02:27:38.551Z,66.28
2019-05-28T02:30:13.585Z,66.19
2019-05-28T02:32:42.762Z,66.98
2019-05-28T02:35:12.678Z,67.71
2019-05-28T02:37:41.853Z,68.80
2019-05-28T02:40:12.065Z,69.52
2019-05-28T02:42:41.256Z,70.17
2019-05-28T02:45:11.392Z,70.94
2019-05-28T02:47:40.565Z,71.55
2019-05-28T02:50:11.098Z,71.76
2019-05-28T02:52:40.767Z,72.76
2019-05-28T02:55:10.907Z,72.70
2019-05-28T02:57:42.804Z,72.38
2019-05-28T03:00:17.181Z,72.13
2019-05-28T03:02:49.194Z,71.78
2019-05-28T03:05:18.612Z,72.25
2019-05-28T03:07:48.329Z,72.54
2019-05-28T03:11:00.340Z,72.70
2019-05-28T03:13:06.347Z,72.72
2019-05-28T03:15:38.615Z,72.69
2019-05-28T03:18:12.353Z,72.84
2019-05-28T03:20:42.936Z,73.24
2019-05-28T03:23:13.159Z,73.32
2019-05-28T03:25:42.576Z,73.54
2019-05-28T03:28:11.942Z,74.00
2019-05-28T03:30:42.212Z,74.76
2019-05-28T03:33:11.459Z,75.70
2019-05-28T03:35:42.613Z,75.98
2019-05-28T03:38:12.529Z,76.23
2019-05-28T03:40:46.087Z,76.36
2019-05-28T03:43:15.674Z,76.62
2019-05-28T03:45:45.204Z,77.21
2019-05-28T03:48:14.645Z,77.62
2019-05-28T03:50:43.826Z,77.75
2019-05-28T03:53:13.039Z,77.81
2019-05-28T03:55:42.213Z,79.30
2019-05-28T03:58:11.393Z,79.23
2019-05-28T04:00:40.643Z,78.91
2019-05-28T04:03:11.097Z,79.89
2019-05-28T04:05:40.289Z,80.35
2019-05-28T04:08:09.572Z,79.54
2019-05-28T04:10:38.812Z,79.88
2019-05-28T04:13:07.983Z,79.90
2019-05-28T04:15:37.096Z,80.14
2019-05-28T04:18:06.296Z,80.01
2019-05-28T04:20:35.505Z,80.04
2019-05-28T04:23:07.640Z,81.17
2019-05-28T04:25:36.822Z,81.60
2019-05-28T04:28:06.062Z,81.63
2019-05-28T04:30:35.252Z,80.38
2019-05-28T04:33:04.428Z,81.08
2019-05-28T04:35:33.601Z,81.24
2019-05-28T04:38:04.653Z,81.05
2019-05-28T04:40:33.909Z,81.59
2019-05-28T04:43:03.186Z,80.72
2019-05-28T04:45:32.399Z,79.33
2019-05-28T04:48:01.593Z,79.14
2019-05-28T04:50:30.702Z,79.06
2019-05-28T04:52:59.873Z,79.36
2019-05-28T04:55:29.112Z,79.43
2019-05-28T04:57:58.222Z,79.01
2019-05-28T05:00:27.451Z,78.93
2019-05-28T05:02:59.929Z,80.02
2019-05-28T05:05:27.570Z,79.82
2019-05-28T05:07:56.796Z,79.50
2019-05-28T05:10:26.357Z,79.50
2019-05-28T05:12:55.562Z,79.12
2019-05-28T05:15:24.834Z,79.03
2019-05-28T05:17:54.030Z,80.06
2019-05-28T05:20:23.234Z,79.99
2019-05-28T05:22:52.416Z,80.97
2019-05-28T05:25:21.926Z,80.51
2019-05-28T05:27:51.140Z,80.42
2019-05-28T05:30:20.327Z,80.59
2019-05-28T05:32:49.580Z,80.93
2019-05-28T05:35:19.406Z,81.28
2019-05-28T05:37:48.590Z,81.46
2019-05-28T05:40:18.318Z,81.72
2019-05-28T05:42:47.651Z,81.92
2019-05-28T05:45:17.272Z,82.29
2019-05-28T05:47:46.656Z,82.77
2019-05-28T05:50:16.067Z,83.05
2019-05-28T05:52:45.315Z,83.81
2019-05-28T05:55:14.769Z,84.03
2019-05-28T05:57:43.942Z,83.94
2019-05-28T06:00:14.885Z,83.91
2019-05-28T06:02:44.049Z,83.93
2019-05-28T06:05:13.418Z,83.86
2019-05-28T06:07:42.663Z,83.80
2019-05-28T06:10:12.071Z,83.92
2019-05-28T06:12:41.284Z,83.92
2019-05-28T06:15:10.937Z,84.33
2019-05-28T06:17:40.153Z,84.91
2019-05-28T06:20:10.687Z,85.26
2019-05-28T06:22:40.186Z,85.33
2019-05-28T06:25:09.614Z,84.35
2019-05-28T06:27:39.079Z,83.40
2019-05-28T06:30:08.900Z,83.04
2019-05-28T06:32:38.706Z,82.37
2019-05-28T06:35:08.298Z,82.14
2019-05-28T06:37:37.483Z,82.48
2019-05-28T06:40:08.803Z,82.10
2019-05-28T06:42:39.714Z,81.41
2019-05-28T06:45:09.251Z,79.25
2019-05-28T06:47:38.411Z,79.95
2019-05-28T06:50:10.215Z,80.09
2019-05-28T06:52:39.559Z,80.96
2019-05-28T06:55:09.364Z,81.74
2019-05-28T06:57:38.510Z,82.90
2019-05-28T07:00:08.713Z,83.99
2019-05-28T07:02:37.887Z,85.17
2019-05-28T07:05:07.301Z,85.81
2019-05-28T07:07:36.491Z,86.83
2019-05-28T07:10:06.728Z,88.03
2019-05-28T07:12:35.906Z,88.52
2019-05-28T07:15:06.944Z,88.68
2019-05-28T07:17:36.130Z,88.96
2019-05-28T07:20:09.275Z,89.25
2019-05-28T07:22:38.463Z,88.66
2019-05-28T07:25:08.064Z,88.64
2019-05-28T07:27:37.277Z,89.18
2019-05-28T07:30:08.532Z,89.07
2019-05-28T07:32:37.713Z,88.98
2019-05-28T07:35:07.377Z,87.58
2019-05-28T07:37:36.603Z,88.30
2019-05-28T07:40:07.849Z,87.12
2019-05-28T07:42:54.493Z,88.17
2019-05-28T07:45:23.756Z,88.45
2019-05-28T07:47:52.974Z,90.08
2019-05-28T07:50:22.211Z,90.51
2019-05-28T07:52:51.397Z,91.66
2019-05-28T07:55:20.570Z,90.75
2019-05-28T07:57:49.766Z,90.72
2019-05-28T08:00:22.023Z,89.70
2019-05-28T08:02:51.203Z,90.23
2019-05-28T08:05:20.389Z,89.87
2019-05-28T08:07:49.574Z,89.17
2019-05-28T08:10:18.995Z,89.54
2019-05-28T08:12:48.247Z,89.77
2019-05-28T08:15:17.509Z,89.00
2019-05-28T08:17:46.710Z,89.44
2019-05-28T08:20:18.483Z,89.44
2019-05-28T08:22:46.839Z,89.59
2019-05-28T08:25:33.402Z,90.11
2019-05-28T08:27:46.910Z,90.26
2019-05-28T08:30:34.097Z,91.16
2019-05-28T08:33:03.330Z,90.85
2019-05-28T08:35:32.576Z,90.80
2019-05-28T08:38:01.777Z,90.29
2019-05-28T08:40:31.004Z,90.53
2019-05-28T08:43:00.219Z,89.12
2019-05-28T08:45:29.383Z,90.38
2019-05-28T08:47:58.572Z,90.57
2019-05-28T08:50:34.241Z,90.40
2019-05-28T08:52:58.902Z,91.28
2019-05-28T08:55:28.176Z,90.72
2019-05-28T08:57:57.359Z,90.97
2019-05-28T09:00:44.060Z,91.50
2019-05-28T09:03:13.534Z,91.16
2019-05-28T09:05:42.780Z,91.35
2019-05-28T09:08:11.959Z,92.17
2019-05-28T09:10:41.145Z,91.68
2019-05-28T09:13:10.363Z,92.06
2019-05-28T09:15:39.538Z,93.07
2019-05-28T09:18:08.757Z,93.13
2019-05-28T09:20:38.284Z,92.96
2019-05-28T09:23:07.516Z,92.81
2019-05-28T09:25:36.720Z,92.84
2019-05-28T09:28:05.890Z,93.36
2019-05-28T09:30:35.070Z,93.22
2019-05-28T09:33:04.330Z,92.79
2019-05-28T09:35:44.279Z,91.74
2019-05-28T09:38:04.588Z,92.35
2019-05-28T09:40:49.106Z,92.55
2019-05-28T09:43:04.717Z,92.58
2019-05-28T09:45:33.964Z,92.46
2019-05-28T09:48:03.152Z,91.87
2019-05-28T09:50:32.351Z,91.09
2019-05-28T09:53:01.544Z,90.62
2019-05-28T09:55:30.784Z,88.46
2019-05-28T09:57:59.958Z,87.88
2019-05-28T10:00:30.048Z,87.06
2019-05-28T10:02:59.241Z,86.18
2019-05-28T10:05:28.453Z,85.48
2019-05-28T10:07:57.744Z,87.91
2019-05-28T10:10:26.952Z,87.70
2019-05-28T10:12:56.157Z,86.54
2019-05-28T10:15:25.324Z,85.41
2019-05-28T10:17:54.567Z,83.86
2019-05-28T10:20:24.426Z,84.55
2019-05-28T10:22:53.560Z,84.15
2019-05-28T10:25:23.078Z,83.74
2019-05-28T10:28:01.106Z,85.08
2019-05-28T10:30:24.579Z,84.39
2019-05-28T10:32:53.843Z,86.06
2019-05-28T10:35:23.655Z,84.18
2019-05-28T10:37:52.823Z,84.68
2019-05-28T10:40:22.382Z,83.21
2019-05-28T10:42:51.544Z,82.85
2019-05-28T10:45:21.388Z,83.82
2019-05-28T10:47:50.567Z,81.99
2019-05-28T10:50:20.582Z,82.37
2019-05-28T10:52:49.994Z,83.57
2019-05-28T10:55:19.295Z,82.80
2019-05-28T10:57:48.607Z,82.58
2019-05-28T11:00:18.542Z,83.60
2019-05-28T11:02:47.710Z,82.67
2019-05-28T11:05:17.734Z,82.12
2019-05-28T11:07:46.944Z,81.07
2019-05-28T11:10:24.353Z,80.85
2019-05-28T11:12:48.670Z,80.87
2019-05-28T11:15:18.692Z,80.51
2019-05-28T11:17:47.897Z,80.02
2019-05-28T11:20:17.804Z,78.71
2019-05-28T11:22:47.051Z,79.29
2019-05-28T11:25:18.085Z,80.59
2019-05-28T11:27:47.262Z,80.98
2019-05-28T11:30:17.268Z,80.86
2019-05-28T11:32:46.762Z,79.80
2019-05-28T11:35:17.610Z,77.83
2019-05-28T11:37:46.854Z,77.79
2019-05-28T11:40:17.867Z,79.34
2019-05-28T11:42:47.127Z,78.74
2019-05-28T11:45:17.884Z,79.05
2019-05-28T11:47:50.599Z,77.35
2019-05-28T11:50:18.956Z,76.89
2019-05-28T11:52:48.402Z,77.83
2019-05-28T11:55:18.363Z,76.30
2019-05-28T11:57:47.577Z,75.96
2019-05-28T12:00:17.778Z,76.31
2019-05-28T12:02:47.178Z,74.42
2019-05-28T12:05:16.796Z,75.10
2019-05-28T12:07:45.968Z,74.42
2019-05-28T12:10:15.531Z,71.75
2019-05-28T12:12:44.715Z,72.14
2019-05-28T12:15:18.423Z,73.31
2019-05-28T12:17:47.632Z,71.67
2019-05-28T12:20:19.722Z,69.12
2019-05-28T12:22:48.911Z,69.58
2019-05-28T12:25:19.941Z,71.09
2019-05-28T12:27:49.186Z,69.47
2019-05-28T12:30:19.230Z,69.44
2019-05-28T12:32:48.413Z,68.58
2019-05-28T12:35:28.410Z,67.94
2019-05-28T12:37:50.737Z,66.80
2019-05-28T12:40:20.952Z,66.64
2019-05-28T12:42:50.132Z,67.87
2019-05-28T12:45:34.279Z,67.69
2019-05-28T12:48:12.132Z,67.91
2019-05-28T12:50:24.125Z,66.51
2019-05-28T12:52:53.302Z,68.32
2019-05-28T12:55:23.118Z,66.52
2019-05-28T12:57:52.320Z,67.10
2019-05-28T13:00:22.297Z,65.57
2019-05-28T13:02:51.506Z,66.46
2019-05-28T13:05:23.905Z,66.18
2019-05-28T13:08:07.603Z,66.47
2019-05-28T13:10:24.952Z,66.09
2019-05-28T13:12:54.148Z,66.09
2019-05-28T13:15:23.587Z,65.64
2019-05-28T13:17:52.946Z,65.20
2019-05-28T13:20:22.174Z,64.48
2019-05-28T13:22:51.344Z,65.17
2019-05-28T13:25:20.793Z,64.76
2019-05-28T13:27:49.969Z,67.03
2019-05-28T13:30:19.509Z,65.23
2019-05-28T13:32:48.848Z,65.14
2019-05-28T13:35:19.974Z,66.66
2019-05-28T13:37:49.101Z,65.77
2019-05-28T13:40:21.314Z,64.49
2019-05-28T13:42:50.803Z,65.63
2019-05-28T13:45:20.344Z,65.71
2019-05-28T13:47:49.516Z,65.22
2019-05-28T13:50:19.259Z,65.46
2019-05-28T13:52:48.425Z,64.71
2019-05-28T13:55:17.960Z,65.30
2019-05-28T13:57:47.146Z,65.14
2019-05-28T14:00:18.929Z,61.95
2019-05-28T14:02:48.082Z,62.78
2019-05-28T14:05:18.397Z,62.77
2019-05-28T14:07:47.630Z,61.74
2019-05-28T14:10:17.425Z,60.91
2019-05-28T14:12:46.713Z,59.02
2019-05-28T14:15:16.597Z,60.43
2019-05-28T14:17:45.805Z,58.78
2019-05-28T14:20:15.970Z,58.03
2019-05-28T14:22:45.222Z,57.95
2019-05-28T14:25:14.790Z,59.15
2019-05-28T14:27:44.034Z,59.66
2019-05-28T14:30:16.317Z,58.47
2019-05-28T14:32:45.554Z,57.90
2019-05-28T14:35:15.036Z,60.01
2019-05-28T14:37:44.392Z,59.36
2019-05-28T14:40:15.024Z,59.09
2019-05-28T14:42:44.323Z,58.70
2019-05-28T14:45:16.011Z,58.59
2019-05-28T14:47:45.182Z,58.81
2019-05-28T14:50:16.439Z,61.11
2019-05-28T14:52:45.532Z,62.33
2019-05-28T14:55:16.158Z,62.54
2019-05-28T14:57:45.355Z,61.64
2019-05-28T15:00:17.538Z,62.71
2019-05-28T15:02:46.718Z,63.15
2019-05-28T15:05:16.092Z,63.87
2019-05-28T15:07:45.257Z,61.88
2019-05-28T15:10:16.480Z,64.01
2019-05-28T15:12:45.824Z,64.57
2019-05-28T15:15:33.960Z,63.03
2019-05-28T15:17:47.959Z,65.06
2019-05-28T15:20:17.767Z,65.30
2019-05-28T15:22:46.970Z,64.35
2019-05-28T15:25:17.493Z,65.29
2019-05-28T15:27:47.042Z,64.53
2019-05-28T15:30:16.776Z,65.22
2019-05-28T15:32:45.980Z,64.53
2019-05-28T15:35:15.534Z,66.00
2019-05-28T15:37:44.719Z,66.34
2019-05-28T15:40:14.237Z,63.88
2019-05-28T15:42:43.412Z,64.08
2019-05-28T15:45:13.670Z,62.97
2019-05-28T15:47:44.877Z,61.87
2019-05-28T15:50:14.525Z,62.20
2019-05-28T15:52:43.701Z,60.41
2019-05-28T15:55:13.264Z,60.55
2019-05-28T15:57:42.513Z,61.01
2019-05-28T16:00:24.057Z,62.76
2019-05-28T16:02:53.467Z,63.10
2019-05-28T16:05:22.661Z,62.63
2019-05-28T16:07:54.860Z,62.30
2019-05-28T16:10:24.038Z,60.88
2019-05-28T16:12:53.249Z,60.69
2019-05-28T16:15:22.568Z,62.02
2019-05-28T16:17:51.801Z,61.80
2019-05-28T16:20:21.098Z,61.39
2019-05-28T16:22:50.282Z,61.63
2019-05-28T16:25:19.527Z,61.79
2019-05-28T16:27:48.793Z,61.49
2019-05-28T16:30:18.597Z,62.08
2019-05-28T16:32:47.794Z,62.44
2019-05-28T16:35:21.282Z,63.03
2019-05-28T16:37:50.536Z,61.50
2019-05-28T16:40:20.254Z,60.55
2019-05-28T16:42:49.369Z,61.86
2019-05-28T16:45:20.815Z,60.44
2019-05-28T16:47:50.027Z,60.29
2019-05-28T16:50:20.051Z,60.19
2019-05-28T16:52:49.316Z,61.67
2019-05-28T16:55:19.323Z,62.56
2019-05-28T16:57:48.514Z,62.35
2019-05-28T17:00:18.927Z,61.58
2019-05-28T17:02:48.086Z,60.75
2019-05-28T17:05:17.542Z,61.91
2019-05-28T17:07:46.805Z,61.66
2019-05-28T17:10:31.485Z,61.02
2019-05-28T17:12:47.320Z,60.88
2019-05-28T17:15:17.260Z,60.37
2019-05-28T17:17:48.353Z,60.39
2019-05-28T17:20:18.962Z,60.29
2019-05-28T17:22:48.151Z,61.12
2019-05-28T17:25:18.283Z,60.71
2019-05-28T17:27:47.474Z,61.72
2019-05-28T17:30:22.781Z,60.80
2019-05-28T17:32:48.625Z,61.00
2019-05-28T17:35:18.900Z,61.13
2019-05-28T17:37:48.084Z,60.64
2019-05-28T17:40:21.798Z,59.86
2019-05-28T17:42:48.210Z,58.26
2019-05-28T17:45:18.743Z,56.68
2019-05-28T17:47:47.937Z,58.98
2019-05-28T17:50:17.406Z,57.11
2019-05-28T17:52:50.816Z,58.96
2019-05-28T17:55:17.571Z,58.48
2019-05-28T17:57:46.747Z,58.42
2019-05-28T18:00:18.008Z,58.50
2019-05-28T18:02:48.598Z,58.78
2019-05-28T18:05:18.387Z,57.82
2019-05-28T18:07:47.570Z,59.56
2019-05-28T18:10:18.273Z,59.68
2019-05-28T18:12:47.451Z,60.28
2019-05-28T18:15:20.006Z,59.62
2019-05-28T18:17:49.194Z,59.35
2019-05-28T18:20:18.539Z,57.97
2019-05-28T18:22:47.725Z,60.02
2019-05-28T18:25:20.327Z,59.40
2019-05-28T18:27:49.714Z,59.34
2019-05-28T18:30:19.086Z,59.81
2019-05-28T18:32:48.279Z,59.77
2019-05-28T18:35:17.535Z,58.16
2019-05-28T18:37:46.701Z,58.47
2019-05-28T18:40:22.485Z,58.39
2019-05-28T18:42:58.539Z,59.13
2019-05-28T18:45:34.860Z,58.93
2019-05-28T18:48:04.040Z,57.74
2019-05-28T18:50:33.219Z,57.14
2019-05-28T18:53:06.037Z,58.32
2019-05-28T18:55:35.212Z,57.34
2019-05-28T18:58:04.590Z,58.01
2019-05-28T19:00:33.943Z,59.09
2019-05-28T19:03:03.290Z,58.43
2019-05-28T19:05:33.564Z,58.14
2019-05-28T19:08:02.888Z,57.69
2019-05-28T19:10:32.188Z,58.32
2019-05-28T19:13:06.171Z,58.94
2019-05-28T19:15:35.275Z,59.42
2019-05-28T19:18:04.585Z,58.39
2019-05-28T19:20:33.762Z,57.83
2019-05-28T19:23:02.950Z,58.05
2019-05-28T19:25:33.099Z,57.28
2019-05-28T19:28:02.334Z,58.29
2019-05-28T19:30:35.164Z,58.42
2019-05-28T19:33:05.833Z,57.55
2019-05-28T19:35:35.078Z,58.17
2019-05-28T19:38:06.300Z,58.12
2019-05-28T19:40:38.382Z,57.95
2019-05-28T19:43:07.539Z,59.11
2019-05-28T19:45:37.373Z,59.14
2019-05-28T19:48:07.307Z,59.31
2019-05-28T19:50:37.719Z,59.09
2019-05-28T19:53:06.993Z,59.31
2019-05-28T19:55:36.221Z,59.23
2019-05-28T19:58:06.387Z,58.66
2019-05-28T20:00:35.708Z,59.05
2019-05-28T20:03:04.971Z,59.36
2019-05-28T20:05:34.149Z,59.47
2019-05-28T20:08:03.384Z,59.74
2019-05-28T20:10:32.657Z,59.17
2019-05-28T20:13:01.851Z,59.07
2019-05-28T20:15:31.143Z,59.67
2019-05-28T20:18:00.388Z,59.24
2019-05-28T20:20:29.618Z,59.23
2019-05-28T20:22:58.791Z,58.64
2019-05-28T20:25:27.996Z,59.11
2019-05-28T20:27:57.197Z,59.85
2019-05-28T20:30:26.422Z,59.98
2019-05-28T20:32:55.707Z,59.84
2019-05-28T20:35:24.979Z,60.94
2019-05-28T20:37:54.144Z,60.06
2019-05-28T20:40:23.483Z,60.21
2019-05-28T20:42:52.667Z,60.64
2019-05-28T20:45:21.995Z,59.93
2019-05-28T20:47:51.322Z,60.29
2019-05-28T20:50:20.444Z,60.66
2019-05-28T20:52:49.651Z,61.30
2019-05-28T20:55:19.169Z,60.91
2019-05-28T20:57:49.166Z,61.42
2019-05-28T21:00:18.995Z,61.33
2019-05-28T21:02:48.189Z,61.08
2019-05-28T21:05:18.858Z,61.85
2019-05-28T21:07:50.091Z,61.28
2019-05-28T21:10:19.424Z,61.46
2019-05-28T21:12:50.693Z,63.11
2019-05-28T21:15:20.048Z,62.78
2019-05-28T21:17:51.128Z,63.09
2019-05-28T21:20:20.610Z,62.00
2019-05-28T21:22:51.856Z,62.87
2019-05-28T21:25:21.003Z,62.81
2019-05-28T21:27:50.175Z,62.32
2019-05-28T21:30:19.705Z,62.52
2019-05-28T21:32:48.910Z,61.63
2019-05-28T21:35:18.099Z,63.50
2019-05-28T21:37:47.189Z,63.33
2019-05-28T21:40:16.639Z,63.19
2019-05-28T21:42:58.560Z,62.99
2019-05-28T21:45:17.052Z,63.46
2019-05-28T21:47:46.246Z,64.31
2019-05-28T21:50:15.554Z,63.33
2019-05-28T21:52:44.802Z,64.39
2019-05-28T21:55:14.541Z,64.30
2019-05-28T21:57:43.704Z,65.06
2019-05-28T22:00:19.261Z,64.31
2019-05-28T22:02:48.432Z,63.92
2019-05-28T22:05:17.675Z,64.42
2019-05-28T22:07:46.895Z,64.83
2019-05-28T22:10:16.217Z,65.10
2019-05-28T22:12:45.432Z,65.27
2019-05-28T22:15:16.277Z,64.76
2019-05-28T22:17:45.456Z,66.17
2019-05-28T22:20:14.810Z,65.90
2019-05-28T22:22:43.981Z,65.27
2019-05-28T22:25:13.240Z,65.86
2019-05-28T22:27:42.424Z,65.21
2019-05-28T22:30:11.964Z,65.23
2019-05-28T22:32:41.153Z,65.09
2019-05-28T22:35:10.782Z,65.10
2019-05-28T22:37:40.032Z,64.91
2019-05-28T22:40:10.388Z,65.78
2019-05-28T22:42:39.595Z,65.78
2019-05-28T22:45:09.108Z,64.83
2019-05-28T22:47:38.288Z,64.67
2019-05-28T22:50:22.128Z,65.41
2019-05-28T22:52:41.738Z,65.14
2019-05-28T22:55:11.148Z,65.87
2019-05-28T22:57:40.395Z,65.47
2019-05-28T23:00:10.492Z,66.51
2019-05-28T23:02:39.669Z,66.06
2019-05-28T23:05:09.340Z,66.60
2019-05-28T23:07:38.551Z,66.25
2019-05-28T23:10:08.380Z,67.12
2019-05-28T23:12:39.070Z,66.97
2019-05-28T23:15:10.493Z,66.95
2019-05-28T23:17:39.743Z,67.05
2019-05-28T23:20:11.252Z,67.86
2019-05-28T23:22:40.606Z,67.86
2019-05-28T23:25:11.700Z,67.17
2019-05-28T23:27:40.986Z,67.15
2019-05-28T23:30:23.316Z,68.14
2019-05-28T23:32:43.103Z,68.18
2019-05-28T23:35:12.792Z,68.82
2019-05-28T23:37:42.005Z,68.41
2019-05-28T23:40:11.544Z,67.85
2019-05-28T23:42:41.669Z,68.36
2019-05-28T23:45:11.857Z,68.45
2019-05-28T23:47:41.041Z,69.05
2019-05-28T23:50:15.826Z,68.83
2019-05-28T23:52:41.771Z,68.83
2019-05-28T23:55:11.799Z,69.25
2019-05-28T23:57:41.109Z,68.95
